createdAt,value
2018-11-12T00:00:09.481Z,947.34
2018-11-12T00:01:09.476Z,947.31
2018-11-12T00:02:09.468Z,947.32
2018-11-12T00:03:09.453Z,947.32
2018-11-12T00:04:09.456Z,947.26
2018-11-12T00:05:09.467Z,947.31
2018-11-12T00:06:09.445Z,947.30
2018-11-12T00:07:09.502Z,947.24
2018-11-12T00:08:09.437Z,947.20
2018-11-12T00:09:09.429Z,947.16
2018-11-12T00:10:09.424Z,947.15
2018-11-12T00:11:09.420Z,947.11
2018-11-12T00:12:09.411Z,947.11
2018-11-12T00:13:09.401Z,947.08
2018-11-12T00:14:09.397Z,947.11
2018-11-12T00:15:09.410Z,947.18
2018-11-12T00:16:09.384Z,947.16
2018-11-12T00:17:09.378Z,947.21
2018-11-12T00:18:09.370Z,947.19
2018-11-12T00:19:09.364Z,947.19
2018-11-12T00:20:09.373Z,947.27
2018-11-12T00:21:09.353Z,947.23
2018-11-12T00:22:09.349Z,947.21
2018-11-12T00:23:09.341Z,947.23
2018-11-12T00:24:09.336Z,947.27
2018-11-12T00:25:09.330Z,947.20
2018-11-12T00:26:09.312Z,947.22
2018-11-12T00:27:09.314Z,947.22
2018-11-12T00:28:09.307Z,947.20
2018-11-12T00:29:09.300Z,947.20
2018-11-12T00:30:09.301Z,947.19
2018-11-12T00:31:09.291Z,947.19
2018-11-12T00:32:09.272Z,947.22
2018-11-12T00:33:09.278Z,947.17
2018-11-12T00:34:09.259Z,947.12
2018-11-12T00:35:09.260Z,947.13
2018-11-12T00:36:09.271Z,947.09
2018-11-12T00:37:09.251Z,947.15
2018-11-12T00:38:09.245Z,947.13
2018-11-12T00:39:09.240Z,947.20
2018-11-12T00:40:09.221Z,947.19
2018-11-12T00:41:09.228Z,947.25
2018-11-12T00:42:09.221Z,947.25
2018-11-12T00:43:09.216Z,947.24
2018-11-12T00:44:09.210Z,947.20
2018-11-12T00:45:09.199Z,947.21
2018-11-12T00:46:09.193Z,947.21
2018-11-12T00:47:09.187Z,947.19
2018-11-12T00:48:09.183Z,947.18
2018-11-12T00:49:09.176Z,947.15
2018-11-12T00:50:09.165Z,947.14
2018-11-12T00:51:09.159Z,947.10
2018-11-12T00:52:09.154Z,947.09
2018-11-12T00:53:09.150Z,947.11
2018-11-12T00:54:09.145Z,947.10
2018-11-12T00:55:09.137Z,947.07
2018-11-12T00:56:09.129Z,947.08
2018-11-12T00:57:09.112Z,947.04
2018-11-12T00:58:09.115Z,947.05
2018-11-12T00:59:09.106Z,947.03
2018-11-12T01:00:09.105Z,947.10
2018-11-12T01:01:09.100Z,947.08
2018-11-12T01:02:09.090Z,947.11
2018-11-12T01:03:09.084Z,947.07
2018-11-12T01:04:09.095Z,947.10
2018-11-12T01:05:09.069Z,947.16
2018-11-12T01:06:09.061Z,947.13
2018-11-12T01:07:09.055Z,947.14
2018-11-12T01:08:09.050Z,947.13
2018-11-12T01:09:09.041Z,947.13
2018-11-12T01:10:09.038Z,947.12
2018-11-12T01:11:09.029Z,947.11
2018-11-12T01:12:09.024Z,947.07
2018-11-12T01:13:09.012Z,947.08
2018-11-12T01:14:09.006Z,947.06
2018-11-12T01:15:09.002Z,947.04
2018-11-12T01:16:09.022Z,947.02
2018-11-12T01:17:08.987Z,946.99
2018-11-12T01:18:08.981Z,947.01
2018-11-12T01:19:08.974Z,946.93
2018-11-12T01:20:08.968Z,946.87
2018-11-12T01:21:08.961Z,946.84
2018-11-12T01:22:08.951Z,946.74
2018-11-12T01:23:08.948Z,946.76
2018-11-12T01:24:08.945Z,946.80
2018-11-12T01:25:08.934Z,946.82
2018-11-12T01:26:08.941Z,946.75
2018-11-12T01:27:08.908Z,946.81
2018-11-12T01:28:08.957Z,946.82
2018-11-12T01:29:08.909Z,946.78
2018-11-12T01:30:08.896Z,946.76
2018-11-12T01:31:08.894Z,946.78
2018-11-12T01:32:08.884Z,946.73
2018-11-12T01:33:08.880Z,946.73
2018-11-12T01:34:08.873Z,946.73
2018-11-12T01:35:08.865Z,946.75
2018-11-12T01:36:08.854Z,946.71
2018-11-12T01:37:08.852Z,946.72
2018-11-12T01:38:08.847Z,946.69
2018-11-12T01:39:08.845Z,946.69
2018-11-12T01:40:08.834Z,946.77
2018-11-12T01:41:08.826Z,946.75
2018-11-12T01:42:08.849Z,946.78
2018-11-12T01:43:08.802Z,946.80
2018-11-12T01:44:08.806Z,946.78
2018-11-12T01:45:08.797Z,946.73
2018-11-12T01:46:08.792Z,946.77
2018-11-12T01:47:08.786Z,946.72
2018-11-12T01:48:08.780Z,946.77
2018-11-12T01:49:08.773Z,946.78
2018-11-12T01:50:08.764Z,946.73
2018-11-12T01:51:08.753Z,946.79
2018-11-12T01:52:08.751Z,946.76
2018-11-12T01:53:08.743Z,946.72
2018-11-12T01:54:08.756Z,946.68
2018-11-12T01:55:08.732Z,946.70
2018-11-12T01:56:08.722Z,946.75
2018-11-12T01:57:08.716Z,946.76
2018-11-12T01:58:08.699Z,946.74
2018-11-12T01:59:08.708Z,946.77
2018-11-12T02:00:08.697Z,946.79
2018-11-12T02:01:08.707Z,946.80
2018-11-12T02:02:08.684Z,946.84
2018-11-12T02:03:08.677Z,946.90
2018-11-12T02:04:08.673Z,946.88
2018-11-12T02:05:08.664Z,946.89
2018-11-12T02:06:08.655Z,946.84
2018-11-12T02:07:08.649Z,946.87
2018-11-12T02:08:08.641Z,946.87
2018-11-12T02:09:08.816Z,946.85
2018-11-12T02:10:08.630Z,946.82
2018-11-12T02:11:08.622Z,946.79
2018-11-12T02:12:08.612Z,946.78
2018-11-12T02:13:08.606Z,946.83
2018-11-12T02:14:08.600Z,946.80
2018-11-12T02:15:08.606Z,946.85
2018-11-12T02:16:08.585Z,946.78
2018-11-12T02:17:08.579Z,946.80
2018-11-12T02:18:08.572Z,946.76
2018-11-12T02:19:08.567Z,946.77
2018-11-12T02:20:08.545Z,946.78
2018-11-12T02:21:08.551Z,946.75
2018-11-12T02:22:08.539Z,946.77
2018-11-12T02:23:08.536Z,946.72
2018-11-12T02:24:08.530Z,946.73
2018-11-12T02:25:08.522Z,946.74
2018-11-12T02:26:08.517Z,946.66
2018-11-12T02:27:08.510Z,946.69
2018-11-12T02:28:08.492Z,946.66
2018-11-12T02:29:08.499Z,946.68
2018-11-12T02:30:08.485Z,946.73
2018-11-12T02:31:08.487Z,946.72
2018-11-12T02:32:08.475Z,946.68
2018-11-12T02:33:08.527Z,946.62
2018-11-12T02:34:08.459Z,946.62
2018-11-12T02:35:08.455Z,946.58
2018-11-12T02:36:08.444Z,946.55
2018-11-12T02:37:08.440Z,946.49
2018-11-12T02:38:08.430Z,946.57
2018-11-12T02:39:08.425Z,946.54
2018-11-12T02:40:08.416Z,946.55
2018-11-12T02:41:08.408Z,946.57
2018-11-12T02:42:08.401Z,946.56
2018-11-12T02:43:08.391Z,946.58
2018-11-12T02:44:08.385Z,946.58
2018-11-12T02:45:08.378Z,946.54
2018-11-12T02:46:08.374Z,946.53
2018-11-12T02:47:08.367Z,946.55
2018-11-12T02:48:08.360Z,946.48
2018-11-12T02:49:08.354Z,946.45
2018-11-12T02:50:08.345Z,946.44
2018-11-12T02:51:08.338Z,946.48
2018-11-12T02:52:08.330Z,946.47
2018-11-12T02:53:08.333Z,946.47
2018-11-12T02:54:08.318Z,946.48
2018-11-12T02:55:08.311Z,946.46
2018-11-12T02:56:08.305Z,946.40
2018-11-12T02:57:08.296Z,946.33
2018-11-12T02:58:08.285Z,946.36
2018-11-12T02:59:08.283Z,946.38
2018-11-12T03:00:08.272Z,946.42
2018-11-12T03:01:08.275Z,946.38
2018-11-12T03:02:08.261Z,946.34
2018-11-12T03:03:08.243Z,946.32
2018-11-12T03:04:08.247Z,946.44
2018-11-12T03:05:08.239Z,946.42
2018-11-12T03:06:08.226Z,946.43
2018-11-12T03:07:08.219Z,946.39
2018-11-12T03:08:08.217Z,946.42
2018-11-12T03:09:08.224Z,946.43
2018-11-12T03:10:08.206Z,946.46
2018-11-12T03:11:08.198Z,946.49
2018-11-12T03:12:08.193Z,946.46
2018-11-12T03:13:08.185Z,946.47
2018-11-12T03:14:08.178Z,946.42
2018-11-12T03:15:08.174Z,946.40
2018-11-12T03:16:08.165Z,946.44
2018-11-12T03:17:08.158Z,946.47
2018-11-12T03:18:08.156Z,946.42
2018-11-12T03:19:08.146Z,946.42
2018-11-12T03:20:08.134Z,946.44
2018-11-12T03:21:08.130Z,946.45
2018-11-12T03:22:08.121Z,946.53
2018-11-12T03:23:08.108Z,946.53
2018-11-12T03:24:08.124Z,946.55
2018-11-12T03:25:08.089Z,946.55
2018-11-12T03:26:08.092Z,946.57
2018-11-12T03:27:08.085Z,946.57
2018-11-12T03:28:08.090Z,946.53
2018-11-12T03:29:08.069Z,946.52
2018-11-12T03:30:08.066Z,946.52
2018-11-12T03:31:08.057Z,946.60
2018-11-12T03:32:08.054Z,946.58
2018-11-12T03:33:08.032Z,946.59
2018-11-12T03:34:08.035Z,946.57
2018-11-12T03:35:08.027Z,946.58
2018-11-12T03:36:08.010Z,946.61
2018-11-12T03:37:08.013Z,946.60
2018-11-12T03:38:08.006Z,946.61
2018-11-12T03:39:08.021Z,946.61
2018-11-12T03:40:07.997Z,946.64
2018-11-12T03:41:07.985Z,946.61
2018-11-12T03:42:07.978Z,946.66
2018-11-12T03:43:07.965Z,946.68
2018-11-12T03:44:07.962Z,946.73
2018-11-12T03:45:07.954Z,946.74
2018-11-12T03:46:07.948Z,946.70
2018-11-12T03:47:07.940Z,946.75
2018-11-12T03:48:07.934Z,946.74
2018-11-12T03:49:07.927Z,946.73
2018-11-12T03:50:07.919Z,946.74
2018-11-12T03:51:07.914Z,946.71
2018-11-12T03:52:07.926Z,946.74
2018-11-12T03:53:07.903Z,946.73
2018-11-12T03:54:07.893Z,946.76
2018-11-12T03:55:07.886Z,946.75
2018-11-12T03:56:07.877Z,946.70
2018-11-12T03:57:07.869Z,946.71
2018-11-12T03:58:07.862Z,946.72
2018-11-12T03:59:07.856Z,946.72
2018-11-12T04:00:07.870Z,946.68
2018-11-12T04:01:07.853Z,946.68
2018-11-12T04:02:07.835Z,946.59
2018-11-12T04:03:07.826Z,946.67
2018-11-12T04:04:07.818Z,946.68
2018-11-12T04:05:07.811Z,946.69
2018-11-12T04:06:07.804Z,946.66
2018-11-12T04:07:07.803Z,946.71
2018-11-12T04:08:07.788Z,946.74
2018-11-12T04:09:07.795Z,946.69
2018-11-12T04:10:07.774Z,946.78
2018-11-12T04:11:07.778Z,946.73
2018-11-12T04:12:07.767Z,946.71
2018-11-12T04:13:07.753Z,946.72
2018-11-12T04:14:07.736Z,946.65
2018-11-12T04:15:07.738Z,946.65
2018-11-12T04:16:07.730Z,946.63
2018-11-12T04:17:07.726Z,946.58
2018-11-12T04:18:07.719Z,946.57
2018-11-12T04:19:07.719Z,946.59
2018-11-12T04:20:07.703Z,946.57
2018-11-12T04:21:07.696Z,946.64
2018-11-12T04:22:07.690Z,946.64
2018-11-12T04:23:07.682Z,946.66
2018-11-12T04:24:07.677Z,946.64
2018-11-12T04:25:07.668Z,946.66
2018-11-12T04:26:07.690Z,946.68
2018-11-12T04:27:07.653Z,946.73
2018-11-12T04:28:07.641Z,946.70
2018-11-12T04:29:07.635Z,946.72
2018-11-12T04:30:07.636Z,946.73
2018-11-12T04:31:07.631Z,946.72
2018-11-12T04:32:07.636Z,946.74
2018-11-12T04:33:07.618Z,946.74
2018-11-12T04:34:07.609Z,946.77
2018-11-12T04:35:07.602Z,946.75
2018-11-12T04:36:07.597Z,946.77
2018-11-12T04:37:07.585Z,946.75
2018-11-12T04:38:07.584Z,946.74
2018-11-12T04:39:07.574Z,946.74
2018-11-12T04:40:07.568Z,946.77
2018-11-12T04:41:07.567Z,946.75
2018-11-12T04:42:07.559Z,946.72
2018-11-12T04:43:07.552Z,946.72
2018-11-12T04:44:07.542Z,946.71
2018-11-12T04:45:07.533Z,946.76
2018-11-12T04:46:07.530Z,946.76
2018-11-12T04:47:07.523Z,946.78
2018-11-12T04:48:07.515Z,946.78
2018-11-12T04:49:07.510Z,946.77
2018-11-12T04:50:07.503Z,946.77
2018-11-12T04:51:07.485Z,946.75
2018-11-12T04:52:07.481Z,946.73
2018-11-12T04:53:07.482Z,946.76
2018-11-12T04:54:07.477Z,946.74
2018-11-12T04:55:07.540Z,946.76
2018-11-12T04:56:07.463Z,946.75
2018-11-12T04:57:07.464Z,946.75
2018-11-12T04:58:07.455Z,946.76
2018-11-12T04:59:07.457Z,946.79
2018-11-12T05:00:07.439Z,946.78
2018-11-12T05:01:07.431Z,946.74
2018-11-12T05:02:07.558Z,946.70
2018-11-12T05:03:07.418Z,946.74
2018-11-12T05:04:07.412Z,946.70
2018-11-12T05:05:07.424Z,946.68
2018-11-12T05:06:07.399Z,946.70
2018-11-12T05:07:07.394Z,946.69
2018-11-12T05:08:07.382Z,946.69
2018-11-12T05:09:07.380Z,946.70
2018-11-12T05:10:07.382Z,946.74
2018-11-12T05:11:07.372Z,946.72
2018-11-12T05:12:07.368Z,946.68
2018-11-12T05:13:07.385Z,946.70
2018-11-12T05:14:07.349Z,946.66
2018-11-12T05:15:07.352Z,946.61
2018-11-12T05:16:07.335Z,946.65
2018-11-12T05:17:07.333Z,946.65
2018-11-12T05:18:07.323Z,946.65
2018-11-12T05:19:07.319Z,946.65
2018-11-12T05:20:07.312Z,946.65
2018-11-12T05:21:07.303Z,946.66
2018-11-12T05:22:07.299Z,946.70
2018-11-12T05:23:07.291Z,946.66
2018-11-12T05:24:07.285Z,946.66
2018-11-12T05:25:07.292Z,946.66
2018-11-12T05:26:07.282Z,946.70
2018-11-12T05:27:07.267Z,946.66
2018-11-12T05:28:07.261Z,946.61
2018-11-12T05:29:07.255Z,946.58
2018-11-12T05:30:07.249Z,946.54
2018-11-12T05:31:07.243Z,946.54
2018-11-12T05:32:07.234Z,946.48
2018-11-12T05:33:07.232Z,946.52
2018-11-12T05:34:07.237Z,946.55
2018-11-12T05:35:07.218Z,946.55
2018-11-12T05:36:07.212Z,946.55
2018-11-12T05:37:07.207Z,946.53
2018-11-12T05:38:07.208Z,946.53
2018-11-12T05:39:07.184Z,946.56
2018-11-12T05:40:07.180Z,946.65
2018-11-12T05:41:07.207Z,946.67
2018-11-12T05:42:07.174Z,946.58
2018-11-12T05:43:07.171Z,946.57
2018-11-12T05:44:07.162Z,946.54
2018-11-12T05:45:07.235Z,946.51
2018-11-12T05:46:07.152Z,946.52
2018-11-12T05:47:07.147Z,946.50
2018-11-12T05:48:07.139Z,946.49
2018-11-12T05:49:07.131Z,946.53
2018-11-12T05:50:07.122Z,946.58
2018-11-12T05:51:07.118Z,946.59
2018-11-12T05:52:07.111Z,946.57
2018-11-12T05:53:07.105Z,946.58
2018-11-12T05:54:07.099Z,946.59
2018-11-12T05:55:07.094Z,946.56
2018-11-12T05:56:07.085Z,946.54
2018-11-12T05:57:07.092Z,946.59
2018-11-12T05:58:07.084Z,946.62
2018-11-12T05:59:07.127Z,946.61
2018-11-12T06:00:07.057Z,946.56
2018-11-12T06:01:07.052Z,946.51
2018-11-12T06:02:07.047Z,946.53
2018-11-12T06:03:07.039Z,946.49
2018-11-12T06:04:07.037Z,946.44
2018-11-12T06:05:07.026Z,946.44
2018-11-12T06:06:07.021Z,946.36
2018-11-12T06:07:07.011Z,946.39
2018-11-12T06:08:07.007Z,946.49
2018-11-12T06:09:06.998Z,946.47
2018-11-12T06:10:06.993Z,946.51
2018-11-12T06:11:06.986Z,946.53
2018-11-12T06:12:06.977Z,946.49
2018-11-12T06:13:06.975Z,946.52
2018-11-12T06:14:06.965Z,946.57
2018-11-12T06:15:06.959Z,946.56
2018-11-12T06:16:06.955Z,946.56
2018-11-12T06:17:06.944Z,946.59
2018-11-12T06:18:07.002Z,946.59
2018-11-12T06:19:06.930Z,946.59
2018-11-12T06:20:06.924Z,946.54
2018-11-12T06:21:06.918Z,946.56
2018-11-12T06:22:06.913Z,946.57
2018-11-12T06:23:06.907Z,946.58
2018-11-12T06:24:06.913Z,946.57
2018-11-12T06:25:06.896Z,946.57
2018-11-12T06:26:06.886Z,946.51
2018-11-12T06:27:06.884Z,946.48
2018-11-12T06:28:06.875Z,946.53
2018-11-12T06:29:06.868Z,946.49
2018-11-12T06:30:06.887Z,946.51
2018-11-12T06:31:06.883Z,946.49
2018-11-12T06:32:06.851Z,946.44
2018-11-12T06:33:06.861Z,946.44
2018-11-12T06:34:06.842Z,946.48
2018-11-12T06:35:06.832Z,946.51
2018-11-12T06:36:06.826Z,946.53
2018-11-12T06:37:06.833Z,946.52
2018-11-12T06:38:06.817Z,946.45
2018-11-12T06:39:06.815Z,946.43
2018-11-12T06:40:06.814Z,946.48
2018-11-12T06:41:06.797Z,946.49
2018-11-12T06:42:06.782Z,946.51
2018-11-12T06:43:06.855Z,946.51
2018-11-12T06:44:06.780Z,946.48
2018-11-12T06:45:06.776Z,946.44
2018-11-12T06:46:06.772Z,946.44
2018-11-12T06:47:06.764Z,946.47
2018-11-12T06:48:06.758Z,946.45
2018-11-12T06:49:06.760Z,946.43
2018-11-12T06:50:06.751Z,946.40
2018-11-12T06:51:06.744Z,946.38
2018-11-12T06:52:06.737Z,946.34
2018-11-12T06:53:06.786Z,946.38
2018-11-12T06:54:06.732Z,946.38
2018-11-12T06:55:06.723Z,946.43
2018-11-12T06:56:06.705Z,946.45
2018-11-12T06:57:06.743Z,946.50
2018-11-12T06:58:06.708Z,946.60
2018-11-12T06:59:06.708Z,946.69
2018-11-12T07:00:06.698Z,946.64
2018-11-12T07:01:06.831Z,946.66
2018-11-12T07:02:06.688Z,946.65
2018-11-12T07:03:06.686Z,946.63
2018-11-12T07:04:06.703Z,946.61
2018-11-12T07:05:06.676Z,946.60
2018-11-12T07:06:06.673Z,946.63
2018-11-12T07:07:06.797Z,946.63
2018-11-12T07:08:06.665Z,946.61
2018-11-12T07:09:06.660Z,946.62
2018-11-12T07:10:06.653Z,946.64
2018-11-12T07:11:06.648Z,946.64
2018-11-12T07:12:06.648Z,946.70
2018-11-12T07:13:06.688Z,946.68
2018-11-12T07:14:06.638Z,946.68
2018-11-12T07:15:06.636Z,946.73
2018-11-12T07:16:06.632Z,946.72
2018-11-12T07:17:06.627Z,946.65
2018-11-12T07:18:06.616Z,946.68
2018-11-12T07:19:06.620Z,946.64
2018-11-12T07:20:06.614Z,946.61
2018-11-12T07:21:06.611Z,946.61
2018-11-12T07:22:06.608Z,946.63
2018-11-12T07:23:06.607Z,946.66
2018-11-12T07:24:06.606Z,946.64
2018-11-12T07:25:06.651Z,946.54
2018-11-12T07:26:06.603Z,946.58
2018-11-12T07:27:06.581Z,946.57
2018-11-12T07:28:06.574Z,946.60
2018-11-12T07:29:06.573Z,946.59
2018-11-12T07:30:06.576Z,946.65
2018-11-12T07:31:06.611Z,946.66
2018-11-12T07:32:06.566Z,946.66
2018-11-12T07:33:06.563Z,946.72
2018-11-12T07:34:06.561Z,946.71
2018-11-12T07:35:06.570Z,946.71
2018-11-12T07:36:06.551Z,946.76
2018-11-12T07:37:06.548Z,946.73
2018-11-12T07:38:06.543Z,946.77
2018-11-12T07:39:06.538Z,946.70
2018-11-12T07:40:06.531Z,946.77
2018-11-12T07:41:06.531Z,946.80
2018-11-12T07:42:06.563Z,946.84
2018-11-12T07:43:06.525Z,946.80
2018-11-12T07:44:06.520Z,946.72
2018-11-12T07:45:06.516Z,946.69
2018-11-12T07:46:06.510Z,946.63
2018-11-12T07:47:06.513Z,946.59
2018-11-12T07:48:06.524Z,946.64
2018-11-12T07:49:06.495Z,946.67
2018-11-12T07:50:06.527Z,946.74
2018-11-12T07:51:06.526Z,946.78
2018-11-12T07:52:06.491Z,946.73
2018-11-12T07:53:06.526Z,946.70
2018-11-12T07:54:06.496Z,946.71
2018-11-12T07:55:06.477Z,946.71
2018-11-12T07:56:06.542Z,946.70
2018-11-12T07:57:06.470Z,946.57
2018-11-12T07:58:06.483Z,946.58
2018-11-12T07:59:06.462Z,946.66
2018-11-12T08:00:06.488Z,946.65
2018-11-12T08:01:06.456Z,946.62
2018-11-12T08:02:06.472Z,946.62
2018-11-12T08:03:06.608Z,946.63
2018-11-12T08:04:06.442Z,946.65
2018-11-12T08:05:06.440Z,946.68
2018-11-12T08:06:06.436Z,946.64
2018-11-12T08:07:06.427Z,946.66
2018-11-12T08:08:06.424Z,946.68
2018-11-12T08:09:06.565Z,946.67
2018-11-12T08:10:06.511Z,946.75
2018-11-12T08:11:06.529Z,946.75
2018-11-12T08:12:07.287Z,946.76
2018-11-12T08:13:07.635Z,946.74
2018-11-12T08:14:06.422Z,946.73
2018-11-12T08:15:07.041Z,946.78
2018-11-12T08:16:06.478Z,946.74
2018-11-12T08:17:07.641Z,946.70
2018-11-12T08:18:07.274Z,946.66
2018-11-12T08:19:06.497Z,946.71
2018-11-12T08:20:06.414Z,946.75
2018-11-12T08:21:06.807Z,946.84
2018-11-12T08:22:07.289Z,946.83
2018-11-12T08:23:06.400Z,946.81
2018-11-12T08:24:06.612Z,946.73
2018-11-12T08:25:08.048Z,946.72
2018-11-12T08:26:06.665Z,946.68
2018-11-12T08:27:06.387Z,946.71
2018-11-12T08:28:07.072Z,946.80
2018-11-12T08:29:06.493Z,946.87
2018-11-12T08:30:06.577Z,946.89
2018-11-12T08:31:06.352Z,946.85
2018-11-12T08:32:06.345Z,946.85
2018-11-12T08:33:06.367Z,946.74
2018-11-12T08:34:06.339Z,946.80
2018-11-12T08:35:06.336Z,946.82
2018-11-12T08:36:06.348Z,946.86
2018-11-12T08:37:06.332Z,946.84
2018-11-12T08:38:06.329Z,946.86
2018-11-12T08:39:06.341Z,946.83
2018-11-12T08:40:06.358Z,946.83
2018-11-12T08:41:06.416Z,946.78
2018-11-12T08:42:06.321Z,946.80
2018-11-12T08:43:06.314Z,946.74
2018-11-12T08:44:06.312Z,946.69
2018-11-12T08:45:06.309Z,946.62
2018-11-12T08:46:06.383Z,946.64
2018-11-12T08:47:06.305Z,946.65
2018-11-12T08:48:06.299Z,946.60
2018-11-12T08:49:06.420Z,946.63
2018-11-12T08:50:06.403Z,946.72
2018-11-12T08:51:06.289Z,946.80
2018-11-12T08:52:06.365Z,946.80
2018-11-12T08:53:06.287Z,946.85
2018-11-12T08:54:06.286Z,946.85
2018-11-12T08:55:06.448Z,946.88
2018-11-12T08:56:06.292Z,946.83
2018-11-12T08:57:06.276Z,946.73
2018-11-12T08:58:06.295Z,946.70
2018-11-12T08:59:06.302Z,946.75
2018-11-12T09:00:06.273Z,946.83
2018-11-12T09:01:06.267Z,946.82
2018-11-12T09:02:06.260Z,946.84
2018-11-12T09:03:06.262Z,946.83
2018-11-12T09:04:06.342Z,946.86
2018-11-12T09:05:06.253Z,946.83
2018-11-12T09:06:06.346Z,946.86
2018-11-12T09:07:06.308Z,946.89
2018-11-12T09:08:06.284Z,946.96
2018-11-12T09:09:06.242Z,946.94
2018-11-12T09:10:06.365Z,946.99
2018-11-12T09:11:06.241Z,947.04
2018-11-12T09:12:06.236Z,947.02
2018-11-12T09:13:06.232Z,947.06
2018-11-12T09:14:06.227Z,947.06
2018-11-12T09:15:06.235Z,947.06
2018-11-12T09:16:06.222Z,947.09
2018-11-12T09:17:06.218Z,947.15
2018-11-12T09:18:06.214Z,947.16
2018-11-12T09:19:06.214Z,947.12
2018-11-12T09:20:06.209Z,947.14
2018-11-12T09:21:06.210Z,947.13
2018-11-12T09:22:06.208Z,947.21
2018-11-12T09:23:06.200Z,947.30
2018-11-12T09:24:06.261Z,947.26
2018-11-12T09:25:06.197Z,947.23
2018-11-12T09:26:06.237Z,947.20
2018-11-12T09:27:06.192Z,947.16
2018-11-12T09:28:06.238Z,947.14
2018-11-12T09:29:06.189Z,947.15
2018-11-12T09:30:06.185Z,947.16
2018-11-12T09:31:07.525Z,947.27
2018-11-12T09:32:06.185Z,947.42
2018-11-12T09:33:06.169Z,947.57
2018-11-12T09:34:06.175Z,947.67
2018-11-12T09:35:06.174Z,947.73
2018-11-12T09:36:06.167Z,947.71
2018-11-12T09:37:06.167Z,947.61
2018-11-12T09:38:06.192Z,947.52
2018-11-12T09:39:06.216Z,947.42
2018-11-12T09:40:06.162Z,947.34
2018-11-12T09:41:06.160Z,947.34
2018-11-12T09:42:06.174Z,947.37
2018-11-12T09:43:06.206Z,947.46
2018-11-12T09:44:06.181Z,947.49
2018-11-12T09:45:06.142Z,947.50
2018-11-12T09:46:06.165Z,947.48
2018-11-12T09:47:06.150Z,947.44
2018-11-12T09:48:06.154Z,947.43
2018-11-12T09:49:06.211Z,947.44
2018-11-12T09:50:06.155Z,947.52
2018-11-12T09:51:06.155Z,947.61
2018-11-12T09:52:06.155Z,947.65
2018-11-12T09:53:06.154Z,947.69
2018-11-12T09:54:06.208Z,947.66
2018-11-12T09:55:06.159Z,947.49
2018-11-12T09:56:06.172Z,947.33
2018-11-12T09:57:06.156Z,947.25
2018-11-12T09:58:06.157Z,947.19
2018-11-12T09:59:06.188Z,947.19
2018-11-12T10:00:06.188Z,947.23
2018-11-12T10:01:06.518Z,947.20
2018-11-12T10:02:06.903Z,947.26
2018-11-12T10:03:07.085Z,947.26
2018-11-12T10:04:06.890Z,947.33
2018-11-12T10:05:07.149Z,947.39
2018-11-12T10:06:07.710Z,947.46
2018-11-12T10:07:07.656Z,947.52
2018-11-12T10:08:07.698Z,947.56
2018-11-12T10:09:08.805Z,947.68
2018-11-12T10:10:10.082Z,947.75
2018-11-12T10:11:07.754Z,947.76
2018-11-12T10:12:08.248Z,947.82
2018-11-12T10:13:10.176Z,947.91
2018-11-12T10:14:08.731Z,947.92
2018-11-12T10:15:08.720Z,947.85
2018-11-12T10:16:10.142Z,947.85
2018-11-12T10:17:08.692Z,947.89
2018-11-12T10:18:09.207Z,947.91
2018-11-12T10:19:06.277Z,948.00
2018-11-12T10:20:06.243Z,948.03
2018-11-12T10:21:06.209Z,948.11
2018-11-12T10:22:06.234Z,948.09
2018-11-12T10:23:06.218Z,948.07
2018-11-12T10:24:06.212Z,948.02
2018-11-12T10:25:06.228Z,948.10
2018-11-12T10:26:06.232Z,948.10
2018-11-12T10:27:06.271Z,948.09
2018-11-12T10:28:06.245Z,948.13
2018-11-12T10:29:06.251Z,948.13
2018-11-12T10:30:06.247Z,948.18
2018-11-12T10:31:06.295Z,948.16
2018-11-12T10:32:06.336Z,948.12
2018-11-12T10:33:06.260Z,948.14
2018-11-12T10:34:06.311Z,948.02
2018-11-12T10:35:06.281Z,947.91
2018-11-12T10:36:06.284Z,947.86
2018-11-12T10:37:06.301Z,947.85
2018-11-12T10:38:06.465Z,947.91
2018-11-12T10:39:06.311Z,947.89
2018-11-12T10:40:06.317Z,947.87
2018-11-12T10:41:06.356Z,947.86
2018-11-12T10:42:06.330Z,947.83
2018-11-12T10:43:06.337Z,947.89
2018-11-12T10:44:06.330Z,947.95
2018-11-12T10:45:06.349Z,947.90
2018-11-12T10:46:06.353Z,947.82
2018-11-12T10:47:06.359Z,947.81
2018-11-12T10:48:06.451Z,947.80
2018-11-12T10:49:06.372Z,947.79
2018-11-12T10:50:06.374Z,947.81
2018-11-12T10:51:06.387Z,947.85
2018-11-12T10:52:06.425Z,947.86
2018-11-12T10:53:06.391Z,947.87
2018-11-12T10:54:06.611Z,947.81
2018-11-12T10:55:06.572Z,947.85
2018-11-12T10:56:06.417Z,947.83
2018-11-12T10:57:06.422Z,947.84
2018-11-12T10:58:06.418Z,947.89
2018-11-12T10:59:06.428Z,947.83
2018-11-12T11:00:06.460Z,947.84
2018-11-12T11:01:06.439Z,947.89
2018-11-12T11:02:06.444Z,947.87
2018-11-12T11:03:06.452Z,947.93
2018-11-12T11:04:06.447Z,947.94
2018-11-12T11:05:06.461Z,947.97
2018-11-12T11:06:06.464Z,947.91
2018-11-12T11:07:06.469Z,947.98
2018-11-12T11:08:06.528Z,948.06
2018-11-12T11:09:07.092Z,948.14
2018-11-12T11:10:06.500Z,948.11
2018-11-12T11:11:07.166Z,948.18
2018-11-12T11:12:06.502Z,948.25
2018-11-12T11:13:06.524Z,948.23
2018-11-12T11:14:06.521Z,948.32
2018-11-12T11:15:06.555Z,948.30
2018-11-12T11:16:06.532Z,948.35
2018-11-12T11:17:06.575Z,948.37
2018-11-12T11:18:06.540Z,948.36
2018-11-12T11:19:06.552Z,948.35
2018-11-12T11:20:06.550Z,948.38
2018-11-12T11:21:06.579Z,948.37
2018-11-12T11:22:06.561Z,948.29
2018-11-12T11:23:06.567Z,948.27
2018-11-12T11:24:06.571Z,948.31
2018-11-12T11:25:06.573Z,948.28
2018-11-12T11:26:06.587Z,948.25
2018-11-12T11:27:06.578Z,948.28
2018-11-12T11:28:06.593Z,948.27
2018-11-12T11:29:06.591Z,948.26
2018-11-12T11:30:06.590Z,948.22
2018-11-12T11:31:06.590Z,948.24
2018-11-12T11:32:06.592Z,948.27
2018-11-12T11:33:06.596Z,948.35
2018-11-12T11:34:06.603Z,948.35
2018-11-12T11:35:06.601Z,948.37
2018-11-12T11:36:06.601Z,948.38
2018-11-12T11:37:06.607Z,948.43
2018-11-12T11:38:06.605Z,948.47
2018-11-12T11:39:06.609Z,948.50
2018-11-12T11:40:06.612Z,948.53
2018-11-12T11:41:06.611Z,948.49
2018-11-12T11:42:06.615Z,948.55
2018-11-12T11:43:06.612Z,948.42
2018-11-12T11:44:06.607Z,948.41
2018-11-12T11:45:06.616Z,948.32
2018-11-12T11:46:06.672Z,948.27
2018-11-12T11:47:06.621Z,948.26
2018-11-12T11:48:06.677Z,948.25
2018-11-12T11:49:06.630Z,948.21
2018-11-12T11:50:06.674Z,948.30
2018-11-12T11:51:06.630Z,948.30
2018-11-12T11:52:06.630Z,948.24
2018-11-12T11:53:06.631Z,948.23
2018-11-12T11:54:06.632Z,948.21
2018-11-12T11:55:06.634Z,948.18
2018-11-12T11:56:06.636Z,948.13
2018-11-12T11:57:06.680Z,948.15
2018-11-12T11:58:06.636Z,948.15
2018-11-12T11:59:06.639Z,948.16
2018-11-12T12:00:06.644Z,948.19
2018-11-12T12:01:06.644Z,948.25
2018-11-12T12:02:06.693Z,948.23
2018-11-12T12:03:06.735Z,948.29
2018-11-12T12:04:06.648Z,948.28
2018-11-12T12:05:06.646Z,948.27
2018-11-12T12:06:06.644Z,948.30
2018-11-12T12:07:06.648Z,948.26
2018-11-12T12:08:06.651Z,948.28
2018-11-12T12:09:06.664Z,948.24
2018-11-12T12:10:06.651Z,948.22
2018-11-12T12:11:06.655Z,948.23
2018-11-12T12:12:06.658Z,948.19
2018-11-12T12:13:06.658Z,948.24
2018-11-12T12:14:06.658Z,948.31
2018-11-12T12:15:06.665Z,948.34
2018-11-12T12:16:06.660Z,948.39
2018-11-12T12:17:06.659Z,948.45
2018-11-12T12:18:06.673Z,948.42
2018-11-12T12:19:06.718Z,948.42
2018-11-12T12:20:06.665Z,948.42
2018-11-12T12:21:06.757Z,948.45
2018-11-12T12:22:06.664Z,948.40
2018-11-12T12:23:06.665Z,948.39
2018-11-12T12:24:06.666Z,948.35
2018-11-12T12:25:06.729Z,948.32
2018-11-12T12:26:06.668Z,948.32
2018-11-12T12:27:06.669Z,948.32
2018-11-12T12:28:06.674Z,948.35